Time;durP1;ratioP1;P1;durP2;ratioP2;P2;SDS_P1;SDS_P2;PMS_P1;PMS_P2;Temp;Humidity;BMP_temperature;BMP_pressure;BME280_temperature;BME280_humidity;BME280_pressure;Samples;Min_cycle;Max_cycle;Signal;HPM_P1;HPM_P2
2021/01/09 00:00:37;;;;;;;;;;;;;;;;;;5056945;28;19926;-60
2021/01/09 00:03:03;;;;;;;;;;;;;;;;;;5056819;28;20008;-60
2021/01/09 00:05:29;;;;;;;;;;;;;;;;;;5056964;28;19919;-60
2021/01/09 00:07:55;;;;;;;;;;;;;;;;;;5056636;28;19921;-60
2021/01/09 00:10:21;;;;;;;;;;;;;;;;;;5056790;28;20291;-60
2021/01/09 00:12:47;;;;;;;;;;;;;;;;;;5056633;28;19981;-59
2021/01/09 00:15:13;;;;;;;;;;;;;;;;;;5056876;28;19950;-59
2021/01/09 00:17:38;;;;;;;;;;;;;;;;;;5056979;28;20374;-60
2021/01/09 00:20:04;;;;;;;;;;;;;;;;;;5056560;28;19916;-60
2021/01/09 00:22:30;;;;;;;;;;;;;;;;;;5056459;28;20416;-60
2021/01/09 00:24:56;;;;;;;;;;;;;;;;;;5056327;28;19929;-60
2021/01/09 00:27:22;;;;;;;;;;;;;;;;;;5056124;28;19909;-59
2021/01/09 00:29:48;;;;;;;;;;;;;;;;;;5056453;28;19936;-60
2021/01/09 00:32:14;;;;;;;;;;;;;;;;;;5056347;28;19919;-60
2021/01/09 00:34:40;;;;;;;;;;;;;;;;;;5056332;28;20357;-60
2021/01/09 00:37:06;;;;;;;;;;;;;;;;;;5056163;28;19928;-60
2021/01/09 00:39:32;;;;;;;;;;;;;;;;;;5056294;28;19921;-60
2021/01/09 00:41:58;;;;;;;;;;;;;;;;;;5056350;28;20275;-60
2021/01/09 00:44:24;;;;;;;;;;;;;;;;;;5055941;28;19923;-60
2021/01/09 00:46:50;;;;;;;;;;;;;;;;;;5055985;28;19993;-59
2021/01/09 00:49:16;;;;;;;;;;;;;;;;;;5055965;28;19925;-59
2021/01/09 00:51:42;;;;;;;;;;;;;;;;;;5055974;28;19977;-59
2021/01/09 00:54:08;;;;;;;;;;;;;;;;;;5056024;28;20019;-59
2021/01/09 00:56:34;;;;;;;;;;;;;;;;;;5055955;28;19944;-60
2021/01/09 00:59:00;;;;;;;;;;;;;;;;;;5055673;28;19932;-60
2021/01/09 01:01:26;;;;;;;;;;;;;;;;;;5055771;28;20300;-60
2021/01/09 01:03:52;;;;;;;;;;;;;;;;;;5055597;28;19923;-59
2021/01/09 01:06:18;;;;;;;;;;;;;;;;;;5055907;28;19930;-59
2021/01/09 01:08:44;;;;;;;;;;;;;;;;;;5055632;28;20402;-59
2021/01/09 01:11:10;;;;;;;;;;;;;;;;;;5055566;28;19926;-60
2021/01/09 01:13:36;;;;;;;;;;;;;;;;;;5055767;28;19961;-60
2021/01/09 01:16:02;;;;;;;;;;;;;;;;;;5054140;28;19997;-59
2021/01/09 01:18:28;;;;;;;;;;;;;;;;;;5055406;28;19924;-59
2021/01/09 01:20:54;;;;;;;;;;;;;;;;;;5055450;28;19919;-59
2021/01/09 01:23:20;;;;;;;;;;;;;;;;;;5055321;28;19936;-59
2021/01/09 01:25:46;;;;;;;;;;;;;;;;;;5055561;28;19925;-59
2021/01/09 01:28:12;;;;;;;;;;;;;;;;;;5054967;28;20483;-59
2021/01/09 01:30:37;;;;;;;;;;;;;;;;;;5055128;28;19928;-60
2021/01/09 01:33:03;;;;;;;;;;;;;;;;;;5055246;28;19926;-59
2021/01/09 01:35:29;;;;;;;;;;;;;;;;;;5055173;28;19917;-60
2021/01/09 01:37:55;;;;;;;;;;;;;;;;;;5054541;28;19920;-60
2021/01/09 01:40:21;;;;;;;;;;;;;;;;;;5055024;28;20399;-60
2021/01/09 01:42:47;;;;;;;;;;;;;;;;;;5055201;28;19930;-60
2021/01/09 01:45:13;;;;;;;;;;;;;;;;;;5054789;28;20391;-60
2021/01/09 01:47:39;;;;;;;;;;;;;;;;;;5053656;28;19925;-59
2021/01/09 01:50:05;;;;;;;;;;;;;;;;;;5054630;28;20350;-59
2021/01/09 01:52:31;;;;;;;;;;;;;;;;;;5054785;28;19934;-59
2021/01/09 01:54:57;;;;;;;;;;;;;;;;;;5054843;28;19996;-59
2021/01/09 01:57:23;;;;;;;;;;;;;;;;;;5054741;28;20369;-59
2021/01/09 01:59:49;;;;;;;;;;;;;;;;;;5054946;28;19962;-60
2021/01/09 02:02:15;;;;;;;;;;;;;;;;;;5054748;28;20324;-60
2021/01/09 02:04:41;;;;;;;;;;;;;;;;;;5054786;28;19932;-60
2021/01/09 02:07:07;;;;;;;;;;;;;;;;;;5054469;28;19909;-60
2021/01/09 02:09:33;;;;;;;;;;;;;;;;;;5054468;28;19919;-59
2021/01/09 02:11:59;;;;;;;;;;;;;;;;;;5054377;28;19941;-60
2021/01/09 02:14:25;;;;;;;;;;;;;;;;;;5054352;28;19952;-60
2021/01/09 02:16:51;;;;;;;;;;;;;;;;;;5054377;28;19972;-60
2021/01/09 02:19:17;;;;;;;;;;;;;;;;;;5054271;28;19988;-59
2021/01/09 02:21:43;;;;;;;;;;;;;;;;;;5054139;28;19930;-60
2021/01/09 02:24:09;;;;;;;;;;;;;;;;;;5054374;28;20031;-60
2021/01/09 02:26:35;;;;;;;;;;;;;;;;;;5052765;28;19947;-60
2021/01/09 02:29:01;;;;;;;;;;;;;;;;;;5054053;28;20312;-58
2021/01/09 02:31:27;;;;;;;;;;;;;;;;;;5053987;28;19925;-60
2021/01/09 02:33:53;;;;;;;;;;;;;;;;;;5054109;28;19944;-59
2021/01/09 02:36:19;;;;;;;;;;;;;;;;;;5053959;28;20035;-60
2021/01/09 02:38:45;;;;;;;;;;;;;;;;;;5052719;28;19931;-59
2021/01/09 02:41:11;;;;;;;;;;;;;;;;;;5053965;28;20295;-60
2021/01/09 02:43:37;;;;;;;;;;;;;;;;;;5053989;28;19919;-60
2021/01/09 02:46:03;;;;;;;;;;;;;;;;;;5052588;28;20352;-58
2021/01/09 02:48:29;;;;;;;;;;;;;;;;;;5053052;28;19919;-59
2021/01/09 02:50:55;;;;;;;;;;;;;;;;;;5054009;28;19947;-59
2021/01/09 02:53:21;;;;;;;;;;;;;;;;;;5053841;28;19924;-59
2021/01/09 02:55:47;;;;;;;;;;;;;;;;;;5053497;28;20487;-60
2021/01/09 02:58:12;;;;;;;;;;;;;;;;;;5053742;28;19970;-59
2021/01/09 03:00:38;;;;;;;;;;;;;;;;;;5053807;28;19920;-59
2021/01/09 03:03:04;;;;;;;;;;;;;;;;;;5052608;28;20148;-60
2021/01/09 03:05:30;;;;;;;;;;;;;;;;;;5054133;28;19925;-58
2021/01/09 03:07:56;;;;;;;;;;;;;;;;;;5053713;28;19989;-60
2021/01/09 03:10:22;;;;;;;;;;;;;;;;;;5053608;28;19954;-60
2021/01/09 03:12:48;;;;;;;;;;;;;;;;;;5053606;28;20320;-60
2021/01/09 03:15:14;;;;;;;;;;;;;;;;;;5053436;28;20054;-59
2021/01/09 03:17:40;;;;;;;;;;;;;;;;;;5053452;28;19981;-59
2021/01/09 03:20:06;;;;;;;;;;;;;;;;;;5053439;28;19927;-59
2021/01/09 03:22:32;;;;;;;;;;;;;;;;;;5053266;28;19909;-60
2021/01/09 03:24:58;;;;;;;;;;;;;;;;;;5053531;28;19931;-60
2021/01/09 03:27:24;;;;;;;;;;;;;;;;;;5053242;28;20359;-60
2021/01/09 03:29:50;;;;;;;;;;;;;;;;;;5053811;28;19937;-59
2021/01/09 03:32:16;;;;;;;;;;;;;;;;;;5053323;28;19921;-59
2021/01/09 03:34:42;;;;;;;;;;;;;;;;;;5053287;28;19941;-60
2021/01/09 03:37:08;;;;;;;;;;;;;;;;;;5053218;28;20010;-59
2021/01/09 03:39:34;;;;;;;;;;;;;;;;;;5053423;28;20316;-60
2021/01/09 03:42:00;;;;;;;;;;;;;;;;;;5053330;28;19923;-60
2021/01/09 03:44:26;;;;;;;;;;;;;;;;;;5053306;28;19934;-59
2021/01/09 03:46:52;;;;;;;;;;;;;;;;;;5053125;28;19921;-60
2021/01/09 03:49:18;;;;;;;;;;;;;;;;;;5053353;28;19919;-60
2021/01/09 03:51:44;;;;;;;;;;;;;;;;;;5053164;28;20354;-60
2021/01/09 03:54:10;;;;;;;;;;;;;;;;;;5053051;28;19921;-60
2021/01/09 03:56:36;;;;;;;;;;;;;;;;;;5053302;28;19919;-59
2021/01/09 03:59:02;;;;;;;;;;;;;;;;;;5053303;28;19909;-59
2021/01/09 04:01:28;;;;;;;;;;;;;;;;;;5056157;28;19920;-60
2021/01/09 04:03:54;;;;;;;;;;;;;;;;;;5056953;28;19920;-60
2021/01/09 04:06:20;;;;;;;;;;;;;;;;;;5057111;28;20019;-60
2021/01/09 04:08:46;;;;;;;;;;;;;;;;;;5056929;28;19924;-59
2021/01/09 04:11:12;;;;;;;;;;;;;;;;;;5056738;28;20430;-60
2021/01/09 04:13:38;;;;;;;;;;;;;;;;;;5056626;28;20076;-60
2021/01/09 04:16:04;;;;;;;;;;;;;;;;;;5056661;28;19955;-60
2021/01/09 04:18:30;;;;;;;;;;;;;;;;;;5056502;28;19909;-59
2021/01/09 04:20:56;;;;;;;;;;;;;;;;;;5056538;28;20015;-60
2021/01/09 04:23:22;;;;;;;;;;;;;;;;;;5056291;28;19980;-59
2021/01/09 04:25:48;;;;;;;;;;;;;;;;;;5056460;28;19908;-59
2021/01/09 04:28:14;;;;;;;;;;;;;;;;;;5056040;28;19921;-60
2021/01/09 04:30:40;;;;;;;;;;;;;;;;;;5056580;28;20306;-60
2021/01/09 04:33:06;;;;;;;;;;;;;;;;;;5056439;28;19925;-60
2021/01/09 04:35:32;;;;;;;;;;;;;;;;;;5056263;28;20426;-60
2021/01/09 04:37:58;;;;;;;;;;;;;;;;;;5056547;28;20265;-60
2021/01/09 04:40:24;;;;;;;;;;;;;;;;;;5056143;28;19932;-60
2021/01/09 04:42:50;;;;;;;;;;;;;;;;;;5056120;28;19988;-60
2021/01/09 04:45:16;;;;;;;;;;;;;;;;;;5056192;28;20262;-60
2021/01/09 04:47:42;;;;;;;;;;;;;;;;;;5056489;28;19909;-59
2021/01/09 04:50:08;;;;;;;;;;;;;;;;;;5056082;28;20317;-59
2021/01/09 04:52:34;;;;;;;;;;;;;;;;;;5056117;28;19942;-60
2021/01/09 04:55:00;;;;;;;;;;;;;;;;;;5055953;28;20393;-59
2021/01/09 04:57:26;;;;;;;;;;;;;;;;;;5055949;28;19923;-59
2021/01/09 04:59:52;;;;;;;;;;;;;;;;;;5055894;28;19920;-59
2021/01/09 05:02:18;;;;;;;;;;;;;;;;;;5055871;28;20374;-59
2021/01/09 05:04:44;;;;;;;;;;;;;;;;;;5055642;28;19923;-59
2021/01/09 05:07:10;;;;;;;;;;;;;;;;;;5055668;28;19916;-59
2021/01/09 05:09:36;;;;;;;;;;;;;;;;;;5055573;28;19929;-60
2021/01/09 05:12:02;;;;;;;;;;;;;;;;;;5054805;28;19919;-60
2021/01/09 05:14:28;;;;;;;;;;;;;;;;;;5055421;28;20415;-59
2021/01/09 05:16:54;;;;;;;;;;;;;;;;;;5055799;28;19986;-59
2021/01/09 05:19:19;;;;;;;;;;;;;;;;;;5055447;28;20409;-59
2021/01/09 05:21:46;;;;;;;;;;;;;;;;;;5055504;28;19934;-60
2021/01/09 05:24:12;;;;;;;;;;;;;;;;;;5055174;28;19940;-60
2021/01/09 05:26:38;;;;;;;;;;;;;;;;;;5055482;28;19936;-60
2021/01/09 05:29:03;;;;;;;;;;;;;;;;;;5055025;28;19978;-60
2021/01/09 05:31:35;;;;;;;;;;;;;;;;;;5055193;28;19908;-59
2021/01/09 05:34:01;;;;;;;;;;;;;;;;;;5055366;28;19937;-60
2021/01/09 05:36:27;;;;;;;;;;;;;;;;;;5055201;28;19928;-60
2021/01/09 05:38:53;;;;;;;;;;;;;;;;;;5054969;28;20431;-60
2021/01/09 05:41:19;;;;;;;;;;;;;;;;;;5055101;28;20034;-59
2021/01/09 05:43:45;;;;;;;;;;;;;;;;;;5054919;28;19949;-60
2021/01/09 05:46:11;;;;;;;;;;;;;;;;;;5055218;28;19933;-60
2021/01/09 05:48:37;;;;;;;;;;;;;;;;;;5054873;28;19976;-59
2021/01/09 05:51:03;;;;;;;;;;;;;;;;;;5054763;28;19919;-60
2021/01/09 05:53:29;;;;;;;;;;;;;;;;;;5054874;28;20388;-59
2021/01/09 05:55:55;;;;;;;;;;;;;;;;;;5054631;28;19916;-60
2021/01/09 05:58:21;;;;;;;;;;;;;;;;;;5054821;28;19926;-59
2021/01/09 06:00:47;;;;;;;;;;;;;;;;;;5054882;28;20324;-59
2021/01/09 06:03:13;;;;;;;;;;;;;;;;;;5054633;28;19928;-59
2021/01/09 06:05:39;;;;;;;;;;;;;;;;;;5054468;28;19923;-60
2021/01/09 06:08:05;;;;;;;;;;;;;;;;;;5054733;28;19944;-59
2021/01/09 06:10:31;;;;;;;;;;;;;;;;;;5054440;28;19946;-59
2021/01/09 06:12:57;;;;;;;;;;;;;;;;;;5054561;28;20285;-60
2021/01/09 06:15:23;;;;;;;;;;;;;;;;;;5052903;28;19951;-59
2021/01/09 06:17:49;;;;;;;;;;;;;;;;;;5054598;28;20010;-60
2021/01/09 06:20:15;;;;;;;;;;;;;;;;;;5054215;28;20376;-60
2021/01/09 06:22:41;;;;;;;;;;;;;;;;;;5054028;28;19968;-60
2021/01/09 06:25:06;;;;;;;;;;;;;;;;;;5054189;28;19909;-60
2021/01/09 06:27:32;;;;;;;;;;;;;;;;;;5054052;28;19956;-60
2021/01/09 06:29:58;;;;;;;;;;;;;;;;;;5054304;28;19982;-59
2021/01/09 06:32:24;;;;;;;;;;;;;;;;;;5052878;28;19932;-59
2021/01/09 06:34:50;;;;;;;;;;;;;;;;;;5053952;28;19949;-59
2021/01/09 06:37:16;;;;;;;;;;;;;;;;;;5054192;28;19923;-60
2021/01/09 06:39:42;;;;;;;;;;;;;;;;;;5054290;28;20332;-60
2021/01/09 06:42:08;;;;;;;;;;;;;;;;;;5053370;28;20035;-59
2021/01/09 06:44:34;;;;;;;;;;;;;;;;;;5053841;28;20277;-60
2021/01/09 06:47:00;;;;;;;;;;;;;;;;;;5053823;28;19927;-60
2021/01/09 06:49:26;;;;;;;;;;;;;;;;;;5050806;28;19931;-60
2021/01/09 06:51:53;;;;;;;;;;;;;;;;;;5053311;28;19928;-60
2021/01/09 06:54:20;;;;;;;;;;;;;;;;;;5052567;28;19930;-58
2021/01/09 06:56:45;;;;;;;;;;;;;;;;;;5053071;28;19992;-59
2021/01/09 06:59:11;;;;;;;;;;;;;;;;;;5048965;28;19963;-57
2021/01/09 07:01:37;;;;;;;;;;;;;;;;;;5049582;28;19933;-59
2021/01/09 07:04:03;;;;;;;;;;;;;;;;;;5050721;28;20378;-58
2021/01/09 07:06:29;;;;;;;;;;;;;;;;;;5051772;28;20034;-60
2021/01/09 07:08:55;;;;;;;;;;;;;;;;;;5053796;28;19943;-58
2021/01/09 07:11:21;;;;;;;;;;;;;;;;;;5053529;28;20327;-58
2021/01/09 07:13:47;;;;;;;;;;;;;;;;;;5053601;28;19923;-60
2021/01/09 07:16:13;;;;;;;;;;;;;;;;;;5053642;28;20047;-59
2021/01/09 07:18:39;;;;;;;;;;;;;;;;;;5053827;28;20363;-60
2021/01/09 07:21:05;;;;;;;;;;;;;;;;;;5053244;28;19934;-59
2021/01/09 07:23:31;;;;;;;;;;;;;;;;;;5053696;28;19940;-59
2021/01/09 07:25:57;;;;;;;;;;;;;;;;;;5053439;28;19958;-58
2021/01/09 07:28:23;;;;;;;;;;;;;;;;;;5053198;28;19998;-59
2021/01/09 07:30:49;;;;;;;;;;;;;;;;;;5053359;28;19917;-53
2021/01/09 07:33:15;;;;;;;;;;;;;;;;;;5053340;28;19967;-59
2021/01/09 07:35:41;;;;;;;;;;;;;;;;;;5055516;28;20050;-59
2021/01/09 07:38:07;;;;;;;;;;;;;;;;;;5057620;28;19970;-59
2021/01/09 07:40:33;;;;;;;;;;;;;;;;;;5057525;28;20382;-58
2021/01/09 07:42:59;;;;;;;;;;;;;;;;;;5053903;28;19949;-58
2021/01/09 07:45:25;;;;;;;;;;;;;;;;;;5049055;28;20269;-58
2021/01/09 07:47:51;;;;;;;;;;;;;;;;;;5053986;28;19976;-59
2021/01/09 07:50:17;;;;;;;;;;;;;;;;;;5057126;28;19932;-59
2021/01/09 07:52:43;;;;;;;;;;;;;;;;;;5057053;28;19986;-59
2021/01/09 07:55:09;;;;;;;;;;;;;;;;;;5056933;28;20371;-57
2021/01/09 07:57:36;;;;;;;;;;;;;;;;;;5056955;28;19943;-59
2021/01/09 08:00:02;;;;;;;;;;;;;;;;;;5056958;28;19923;-60
2021/01/09 08:02:28;;;;;;;;;;;;;;;;;;5056750;28;19958;-59
2021/01/09 08:04:54;;;;;;;;;;;;;;;;;;5056966;28;20368;-59
2021/01/09 08:07:20;;;;;;;;;;;;;;;;;;5042542;28;19936;-60
2021/01/09 08:09:46;;;;;;;;;;;;;;;;;;5036652;28;19951;-58
2021/01/09 08:12:12;;;;;;;;;;;;;;;;;;5036797;28;19916;-60
2021/01/09 08:14:38;;;;;;;;;;;;;;;;;;5036719;28;19945;-60
2021/01/09 08:17:04;;;;;;;;;;;;;;;;;;5036516;28;19928;-60
2021/01/09 08:19:30;;;;;;;;;;;;;;;;;;5036568;28;20009;-59
2021/01/09 08:21:56;;;;;;;;;;;;;;;;;;5036499;28;19930;-58
2021/01/09 08:24:22;;;;;;;;;;;;;;;;;;5036293;28;19939;-58
2021/01/09 08:26:48;;;;;;;;;;;;;;;;;;5036536;28;19943;-60
2021/01/09 08:29:14;;;;;;;;;;;;;;;;;;5035567;28;20046;-59
2021/01/09 08:31:40;;;;;;;;;;;;;;;;;;5036091;28;19923;-55
2021/01/09 08:34:06;;;;;;;;;;;;;;;;;;5036282;28;19921;-59
2021/01/09 08:36:32;;;;;;;;;;;;;;;;;;5036356;28;19953;-59
2021/01/09 08:38:59;;;;;;;;;;;;;;;;;;5036440;28;19932;-58
2021/01/09 08:41:25;;;;;;;;;;;;;;;;;;5035950;28;19916;-60
2021/01/09 08:43:51;;;;;;;;;;;;;;;;;;5036051;28;19913;-57
2021/01/09 08:46:17;;;;;;;;;;;;;;;;;;5035086;28;19927;-60
2021/01/09 08:48:42;;;;;;;;;;;;;;;;;;5036041;28;20333;-60
2021/01/09 08:51:08;;;;;;;;;;;;;;;;;;5036417;28;19923;-59
2021/01/09 08:53:34;;;;;;;;;;;;;;;;;;5036168;28;20257;-60
2021/01/09 08:56:01;;;;;;;;;;;;;;;;;;5035788;28;19951;-59
2021/01/09 08:58:26;;;;;;;;;;;;;;;;;;5036077;28;20286;-59
2021/01/09 09:00:53;;;;;;;;;;;;;;;;;;5035926;28;19922;-59
2021/01/09 09:03:19;;;;;;;;;;;;;;;;;;5052200;28;19913;-59
2021/01/09 09:05:44;;;;;;;;;;;;;;;;;;5054369;28;19929;-59
2021/01/09 09:08:12;;;;;;;;;;;;;;;;;;5053607;28;19992;-59
2021/01/09 09:10:39;;;;;;;;;;;;;;;;;;5055504;28;19931;-59
2021/01/09 09:13:05;;;;;;;;;;;;;;;;;;5055529;28;19924;-60
2021/01/09 09:15:31;;;;;;;;;;;;;;;;;;5055389;28;19953;-59
2021/01/09 09:17:57;;;;;;;;;;;;;;;;;;5055651;28;20097;-60
2021/01/09 09:20:23;;;;;;;;;;;;;;;;;;5055360;28;20401;-58
2021/01/09 09:22:49;;;;;;;;;;;;;;;;;;5055315;28;19943;-59
2021/01/09 09:25:15;;;;;;;;;;;;;;;;;;5055203;28;19968;-58
2021/01/09 09:27:41;;;;;;;;;;;;;;;;;;5055097;28;19952;-59
2021/01/09 09:30:07;;;;;;;;;;;;;;;;;;5055596;28;19921;-59
2021/01/09 09:32:33;;;;;;;;;;;;;;;;;;5055151;28;20032;-58
2021/01/09 09:34:59;;;;;;;;;;;;;;;;;;5055006;28;19995;-70
2021/01/09 09:37:25;;;;;;;;;;;;;;;;;;5054971;28;19927;-70
2021/01/09 09:39:50;;;;;;;;;;;;;;;;;;5054886;28;19946;-73
2021/01/09 09:42:16;;;;;;;;;;;;;;;;;;5055143;28;20008;-57
2021/01/09 09:44:43;;;;;;;;;;;;;;;;;;5054990;28;19932;-59
2021/01/09 09:47:08;;;;;;;;;;;;;;;;;;5054935;28;19921;-59
2021/01/09 09:49:35;;;;;;;;;;;;;;;;;;5055003;28;20049;-59
2021/01/09 09:52:00;;;;;;;;;;;;;;;;;;5053890;28;19979;-60
2021/01/09 09:54:26;;;;;;;;;;;;;;;;;;5054515;28;19908;-57
2021/01/09 09:56:52;;;;;;;;;;;;;;;;;;5054415;28;19999;-54
2021/01/09 09:59:18;;;;;;;;;;;;;;;;;;5036518;28;19920;-57
2021/01/09 10:01:45;;;;;;;;;;;;;;;;;;5033339;28;19979;-54
2021/01/09 10:04:14;;;;;;;;;;;;;;;;;;5048842;28;19931;-50
2021/01/09 10:06:40;;;;;;;;;;;;;;;;;;5049782;28;20242;-58
2021/01/09 10:09:06;;;;;;;;;;;;;;;;;;5054635;28;19925;-50
2021/01/09 10:11:32;;;;;;;;;;;;;;;;;;5054053;28;20375;-55
2021/01/09 10:13:58;;;;;;;;;;;;;;;;;;5039375;28;19932;-58
2021/01/09 10:16:24;;;;;;;;;;;;;;;;;;5034620;28;19949;-59
2021/01/09 10:18:50;;;;;;;;;;;;;;;;;;5034239;28;20082;-58
2021/01/09 10:21:16;;;;;;;;;;;;;;;;;;5034314;28;20004;-57
2021/01/09 10:23:42;;;;;;;;;;;;;;;;;;5044468;28;19945;-59
2021/01/09 10:26:08;;;;;;;;;;;;;;;;;;5051906;28;20389;-52
2021/01/09 10:28:34;;;;;;;;;;;;;;;;;;5053795;28;19959;-58
2021/01/09 10:31:00;;;;;;;;;;;;;;;;;;5054262;28;20014;-56
2021/01/09 10:33:26;;;;;;;;;;;;;;;;;;5053948;28;20364;-51
2021/01/09 10:35:51;;;;;;;;;;;;;;;;;;5053594;28;20029;-58
2021/01/09 10:38:19;;;;;;;;;;;;;;;;;;5053260;28;20643;-59
2021/01/09 10:40:45;;;;;;;;;;;;;;;;;;5054094;28;19923;-59
2021/01/09 10:43:11;;;;;;;;;;;;;;;;;;5054033;28;20339;-53
2021/01/09 10:45:37;;;;;;;;;;;;;;;;;;5053816;28;19930;-58
2021/01/09 10:48:03;;;;;;;;;;;;;;;;;;5053778;28;20337;-56
2021/01/09 10:50:29;;;;;;;;;;;;;;;;;;5052998;28;19949;-53
2021/01/09 10:52:55;;;;;;;;;;;;;;;;;;5052330;28;19912;-50
2021/01/09 10:55:21;;;;;;;;;;;;;;;;;;5052860;28;19924;-57
2021/01/09 10:57:47;;;;;;;;;;;;;;;;;;5053569;28;19921;-57
2021/01/09 11:00:15;;;;;;;;;;;;;;;;;;5053447;28;20399;-57
2021/01/09 11:02:41;;;;;;;;;;;;;;;;;;5052942;28;19929;-55
2021/01/09 11:05:07;;;;;;;;;;;;;;;;;;5053152;28;19946;-59
2021/01/09 11:07:33;;;;;;;;;;;;;;;;;;5052931;28;20427;-60
2021/01/09 11:09:59;;;;;;;;;;;;;;;;;;5052197;28;19924;-59
2021/01/09 11:12:26;;;;;;;;;;;;;;;;;;5051551;28;20367;-59
2021/01/09 11:14:52;;;;;;;;;;;;;;;;;;5051358;28;19946;-59
2021/01/09 11:17:18;;;;;;;;;;;;;;;;;;5052022;28;19924;-60
2021/01/09 11:19:44;;;;;;;;;;;;;;;;;;5053306;28;20265;-59
2021/01/09 11:22:10;;;;;;;;;;;;;;;;;;5052130;28;19933;-60
2021/01/09 11:24:36;;;;;;;;;;;;;;;;;;5053207;28;19935;-59
2021/01/09 11:27:02;;;;;;;;;;;;;;;;;;5053305;28;19933;-57
2021/01/09 11:29:28;;;;;;;;;;;;;;;;;;5053067;28;19959;-59
2021/01/09 11:31:54;;;;;;;;;;;;;;;;;;5053514;28;20281;-58
2021/01/09 11:34:20;;;;;;;;;;;;;;;;;;5053186;28;19930;-59
2021/01/09 11:36:46;;;;;;;;;;;;;;;;;;5053153;28;20117;-60
2021/01/09 11:39:12;;;;;;;;;;;;;;;;;;5053221;28;19928;-57
2021/01/09 11:41:38;;;;;;;;;;;;;;;;;;5053271;28;19959;-60
2021/01/09 11:44:04;;;;;;;;;;;;;;;;;;5053482;28;19925;-58
2021/01/09 11:46:30;;;;;;;;;;;;;;;;;;5053086;28;20022;-60
2021/01/09 11:48:56;;;;;;;;;;;;;;;;;;5053082;28;19962;-59
2021/01/09 11:51:22;;;;;;;;;;;;;;;;;;5053005;28;19955;-59
2021/01/09 11:53:48;;;;;;;;;;;;;;;;;;5053276;28;19977;-60
2021/01/09 11:56:14;;;;;;;;;;;;;;;;;;5052949;28;19948;-57
2021/01/09 11:58:40;;;;;;;;;;;;;;;;;;5053025;28;20405;-59
2021/01/09 12:01:06;;;;;;;;;;;;;;;;;;5052947;28;20016;-60
2021/01/09 12:03:32;;;;;;;;;;;;;;;;;;5053135;28;19927;-58
2021/01/09 12:05:58;;;;;;;;;;;;;;;;;;5053022;28;20301;-59
2021/01/09 12:08:24;;;;;;;;;;;;;;;;;;5052370;28;19925;-58
2021/01/09 12:10:52;;;;;;;;;;;;;;;;;;5052288;28;19956;-58
2021/01/09 12:13:17;;;;;;;;;;;;;;;;;;5052266;28;19945;-58
2021/01/09 12:15:43;;;;;;;;;;;;;;;;;;5052017;28;20420;-60
2021/01/09 12:18:09;;;;;;;;;;;;;;;;;;5052118;28;19931;-59
2021/01/09 12:20:36;;;;;;;;;;;;;;;;;;5052130;28;19962;-56
2021/01/09 12:23:02;;;;;;;;;;;;;;;;;;5056280;28;19939;-57
2021/01/09 12:25:28;;;;;;;;;;;;;;;;;;5056610;28;19931;-59
2021/01/09 12:27:54;;;;;;;;;;;;;;;;;;5056134;28;19959;-52
2021/01/09 12:30:20;;;;;;;;;;;;;;;;;;5056352;28;20023;-60
2021/01/09 12:32:46;;;;;;;;;;;;;;;;;;5056034;28;19909;-56
2021/01/09 12:35:12;;;;;;;;;;;;;;;;;;5056018;28;19947;-54
2021/01/09 12:37:38;;;;;;;;;;;;;;;;;;5055930;28;20030;-60
2021/01/09 12:40:06;;;;;;;;;;;;;;;;;;5055609;28;19925;-60
2021/01/09 12:42:32;;;;;;;;;;;;;;;;;;5055317;28;19931;-54
2021/01/09 12:44:58;;;;;;;;;;;;;;;;;;5055083;28;20394;-60
2021/01/09 12:47:24;;;;;;;;;;;;;;;;;;5055577;28;20013;-51
2021/01/09 12:49:50;;;;;;;;;;;;;;;;;;5055539;28;19936;-60
2021/01/09 12:52:16;;;;;;;;;;;;;;;;;;5055608;28;20391;-57
2021/01/09 12:54:42;;;;;;;;;;;;;;;;;;5054971;28;20046;-51
2021/01/09 12:57:08;;;;;;;;;;;;;;;;;;5039573;28;19998;-54
2021/01/09 12:59:34;;;;;;;;;;;;;;;;;;5039107;28;20040;-53
2021/01/09 13:02:00;;;;;;;;;;;;;;;;;;5048746;28;20391;-54
2021/01/09 13:04:26;;;;;;;;;;;;;;;;;;5049275;28;19932;-54
2021/01/09 13:06:53;;;;;;;;;;;;;;;;;;5048534;28;19940;-56
2021/01/09 13:09:19;;;;;;;;;;;;;;;;;;5048595;28;19932;-50
2021/01/09 13:11:45;;;;;;;;;;;;;;;;;;5048179;28;19931;-56
2021/01/09 13:14:11;;;;;;;;;;;;;;;;;;5049109;28;19983;-54
2021/01/09 13:16:37;;;;;;;;;;;;;;;;;;5051250;28;19921;-57
2021/01/09 13:19:03;;;;;;;;;;;;;;;;;;5048134;28;19985;-50
2021/01/09 13:21:29;;;;;;;;;;;;;;;;;;5051511;28;20377;-57
2021/01/09 13:23:55;;;;;;;;;;;;;;;;;;5049183;28;19952;-54
2021/01/09 13:26:21;;;;;;;;;;;;;;;;;;5050693;28;19928;-51
2021/01/09 13:28:47;;;;;;;;;;;;;;;;;;5053677;28;19996;-54
2021/01/09 13:31:13;;;;;;;;;;;;;;;;;;5053273;28;19927;-53
2021/01/09 13:33:39;;;;;;;;;;;;;;;;;;5053499;28;19956;-59
2021/01/09 13:36:05;;;;;;;;;;;;;;;;;;5054327;28;20242;-58
2021/01/09 13:38:31;;;;;;;;;;;;;;;;;;5055108;28;19929;-54
2021/01/09 13:40:57;;;;;;;;;;;;;;;;;;5054403;28;19930;-60
2021/01/09 13:43:23;;;;;;;;;;;;;;;;;;5054495;28;20427;-60
2021/01/09 13:45:49;;;;;;;;;;;;;;;;;;5055302;28;19989;-60
2021/01/09 13:48:15;;;;;;;;;;;;;;;;;;5054925;28;19923;-59
2021/01/09 13:50:44;;;;;;;;;;;;;;;;;;5052234;28;19932;-56
2021/01/09 13:53:10;;;;;;;;;;;;;;;;;;5035961;28;20439;-55
2021/01/09 13:55:36;;;;;;;;;;;;;;;;;;5034763;28;19999;-57
2021/01/09 13:58:02;;;;;;;;;;;;;;;;;;5034720;28;19966;-53
2021/01/09 14:00:28;;;;;;;;;;;;;;;;;;5034716;28;20386;-56
2021/01/09 14:02:54;;;;;;;;;;;;;;;;;;5034646;28;19920;-58
2021/01/09 14:05:20;;;;;;;;;;;;;;;;;;5033491;28;19927;-57
2021/01/09 14:07:46;;;;;;;;;;;;;;;;;;5035060;28;19909;-54
2021/01/09 14:10:12;;;;;;;;;;;;;;;;;;5044524;28;19923;-59
2021/01/09 14:12:38;;;;;;;;;;;;;;;;;;5042994;28;19957;-54
2021/01/09 14:15:04;;;;;;;;;;;;;;;;;;5049038;28;19945;-55
2021/01/09 14:17:30;;;;;;;;;;;;;;;;;;5043134;28;20346;-58
2021/01/09 14:19:56;;;;;;;;;;;;;;;;;;5048238;28;20025;-60
2021/01/09 14:22:22;;;;;;;;;;;;;;;;;;5052284;28;19963;-55
2021/01/09 14:24:48;;;;;;;;;;;;;;;;;;5045792;28;20397;-56
2021/01/09 14:27:14;;;;;;;;;;;;;;;;;;5054187;28;19923;-58
2021/01/09 14:29:40;;;;;;;;;;;;;;;;;;5053353;28;20055;-58
2021/01/09 14:32:06;;;;;;;;;;;;;;;;;;5049306;28;19950;-58
2021/01/09 14:34:32;;;;;;;;;;;;;;;;;;5039679;28;20020;-59
2021/01/09 14:36:58;;;;;;;;;;;;;;;;;;5043197;28;20313;-59
2021/01/09 14:39:24;;;;;;;;;;;;;;;;;;5042246;28;19924;-57
2021/01/09 14:41:51;;;;;;;;;;;;;;;;;;5043392;28;20288;-56
2021/01/09 14:44:17;;;;;;;;;;;;;;;;;;5042755;28;19955;-53
2021/01/09 14:46:43;;;;;;;;;;;;;;;;;;5045268;28;19975;-57
2021/01/09 14:49:09;;;;;;;;;;;;;;;;;;5045923;28;20041;-59
2021/01/09 14:51:35;;;;;;;;;;;;;;;;;;5053919;28;19920;-55
2021/01/09 14:54:00;;;;;;;;;;;;;;;;;;5053624;28;20295;-56
2021/01/09 14:56:26;;;;;;;;;;;;;;;;;;5053907;28;19996;-57
2021/01/09 14:58:52;;;;;;;;;;;;;;;;;;5053512;28;19947;-55
2021/01/09 15:01:18;;;;;;;;;;;;;;;;;;5051657;28;19924;-57
2021/01/09 15:03:44;;;;;;;;;;;;;;;;;;5052760;28;19973;-60
2021/01/09 15:06:10;;;;;;;;;;;;;;;;;;5053975;28;20433;-58
2021/01/09 15:08:36;;;;;;;;;;;;;;;;;;5053465;28;19952;-59
2021/01/09 15:11:02;;;;;;;;;;;;;;;;;;5053581;28;19945;-58
2021/01/09 15:13:28;;;;;;;;;;;;;;;;;;5053482;28;20381;-60
2021/01/09 15:15:54;;;;;;;;;;;;;;;;;;5053625;28;19997;-56
2021/01/09 15:18:33;;;;;;;;;;;;;;;;;;5053827;28;19919;-59
2021/01/09 15:20:59;;;;;;;;;;;;;;;;;;5053542;28;20037;-58
2021/01/09 15:23:25;;;;;;;;;;;;;;;;;;5053543;28;19980;-60
2021/01/09 15:25:51;;;;;;;;;;;;;;;;;;5053565;28;19925;-59
2021/01/09 15:28:17;;;;;;;;;;;;;;;;;;5053287;28;19957;-59
2021/01/09 15:30:43;;;;;;;;;;;;;;;;;;5053734;28;20026;-58
2021/01/09 15:33:09;;;;;;;;;;;;;;;;;;5053441;28;19950;-60
2021/01/09 15:35:35;;;;;;;;;;;;;;;;;;5053402;28;20317;-60
2021/01/09 15:38:01;;;;;;;;;;;;;;;;;;5053778;28;19916;-60
2021/01/09 15:40:27;;;;;;;;;;;;;;;;;;5053455;28;19921;-60
2021/01/09 15:42:53;;;;;;;;;;;;;;;;;;5053697;28;19909;-60
2021/01/09 15:45:19;;;;;;;;;;;;;;;;;;5053651;28;19924;-60
2021/01/09 15:47:45;;;;;;;;;;;;;;;;;;5053310;28;20024;-60
2021/01/09 15:50:11;;;;;;;;;;;;;;;;;;5051015;28;19927;-57
2021/01/09 15:52:37;;;;;;;;;;;;;;;;;;5045288;28;20300;-57
2021/01/09 15:55:03;;;;;;;;;;;;;;;;;;5049348;28;19987;-58
2021/01/09 15:57:29;;;;;;;;;;;;;;;;;;5055106;28;19927;-60
2021/01/09 15:59:55;;;;;;;;;;;;;;;;;;5055150;28;19995;-60
2021/01/09 16:02:21;;;;;;;;;;;;;;;;;;5056194;28;19958;-58
2021/01/09 16:04:47;;;;;;;;;;;;;;;;;;5056819;28;19923;-59
2021/01/09 16:07:13;;;;;;;;;;;;;;;;;;5056878;28;19975;-59
2021/01/09 16:09:39;;;;;;;;;;;;;;;;;;5056873;28;19921;-60
2021/01/09 16:12:05;;;;;;;;;;;;;;;;;;5057162;28;19921;-60
2021/01/09 16:14:32;;;;;;;;;;;;;;;;;;5056803;28;20006;-60
2021/01/09 16:16:58;;;;;;;;;;;;;;;;;;5056760;28;20025;-60
2021/01/09 16:19:24;;;;;;;;;;;;;;;;;;5056550;28;19925;-58
2021/01/09 16:21:50;;;;;;;;;;;;;;;;;;5056705;28;19962;-60
2021/01/09 16:24:16;;;;;;;;;;;;;;;;;;5056462;28;19948;-60
2021/01/09 16:26:42;;;;;;;;;;;;;;;;;;5053412;28;19929;-60
2021/01/09 16:29:08;;;;;;;;;;;;;;;;;;5045095;28;19963;-60
2021/01/09 16:31:34;;;;;;;;;;;;;;;;;;5036769;28;19921;-60
2021/01/09 16:34:00;;;;;;;;;;;;;;;;;;5036562;28;20377;-60
2021/01/09 16:36:26;;;;;;;;;;;;;;;;;;5044456;28;19951;-60